Terminal Aerodrome Forecast
Issued by NWS

Home | Current Version | Previous Version | Text Only | Print | Product List | Glossary On
Versions: 1 2 3 4 5 6 7 8 9 10 11 12 13 14 15 16 17 18 19 20 21
000
FTUS45 KFGZ 291800 AAA
TAFGCN
TAF AMD
KGCN 291845Z 2919/3018 24010KT P6SM SCT070
      TEMPO 2919/2923 VRB15G25KT 6SM -TSRA BKN060CB
     FM300400 VRB03KT P6SM FEW080=

USA.gov is the U.S. government's official web portal to all federal, state and local government web resources and services.